Cooks Corners, New York
Current Conditions -  °F | °C
As of 8:53 PM on Wednesday 26 Nov 2014 (Local Time) from KMSS Reporting Station
Overcast Overcast  
Wind Chill: 23°   Ceiling: 6000
Heat Index: 31°   Visibility: 10mi
Dew Point: 22°   Wind: 9mph
Humidity: 69%   Direction: 20°NNE
Pressure: 30.09"   Gusts: NA
Location:  44.8293°N, 74.5271°W
Report Text: KMSS 270153Z AUTO 02008KT 10SM BKN060 OVC075 M01/M06 A3009 RMK AO2 SLP195 T10061056
Loading
Personal Weather Stations






























Interactive Weather Map New forecast layout! Learn more

10-Day Weather Forecast

Advertisements
Track Severe Weather on mobile